createdAt,value
2022-08-09T00:00:36.167Z,101194.54
2022-08-09T00:01:54.324Z,101197.5
2022-08-09T00:02:49.301Z,101196.16
2022-08-09T00:04:00.447Z,101197.48
2022-08-09T00:05:03.240Z,101197.01
2022-08-09T00:06:19.737Z,101197.5
2022-08-09T00:06:54.145Z,101197.12
2022-08-09T00:07:54.561Z,101199.23
2022-08-09T00:08:57.553Z,101196.67
2022-08-09T00:09:55.380Z,101203.95
2022-08-09T00:10:55.900Z,101199.5
2022-08-09T00:12:02.926Z,101202.11
2022-08-09T00:12:56.523Z,101199.44
2022-08-09T00:13:57.152Z,101200.93
2022-08-09T00:14:57.457Z,101201.91
2022-08-09T00:16:02.693Z,101200.27
2022-08-09T00:17:00.447Z,101202.38
2022-08-09T00:18:05.885Z,101205.63
2022-08-09T00:19:10.279Z,101201.45
2022-08-09T00:20:09.265Z,101200.12
2022-08-09T00:21:09.681Z,101204.73
2022-08-09T00:22:11.372Z,101202.91
2022-08-09T00:23:55.883Z,101201.91
2022-08-09T00:24:14.996Z,101200.45
2022-08-09T00:25:13.498Z,101202.84
2022-08-09T00:26:13.913Z,101199.35
2022-08-09T00:27:14.532Z,101204.3
2022-08-09T00:28:14.951Z,101204.69
2022-08-09T00:29:39.934Z,101205.09
2022-08-09T00:30:25.944Z,101204.08
2022-08-09T00:31:56.898Z,101200.92
2022-08-09T00:32:26.630Z,101200.82
2022-08-09T00:33:48.838Z,101200.89
2022-08-09T00:34:27.076Z,101199.25
2022-08-09T00:35:30.043Z,101200.08
2022-08-09T00:36:30.976Z,101203.52
2022-08-09T00:37:32.494Z,101203.77
2022-08-09T00:38:32.113Z,101200.38
2022-08-09T00:40:14.128Z,101202.06
2022-08-09T00:40:34.925Z,101198.94
2022-08-09T00:44:11.020Z,101202.41
2022-08-09T00:44:16.064Z,101203.12
2022-08-09T00:44:16.791Z,101198
2022-08-09T00:44:42.601Z,101200.2
2022-08-09T00:45:50.399Z,101201.05
2022-08-09T00:46:57.457Z,101199.8
2022-08-09T00:47:47.854Z,101202.25
2022-08-09T00:48:49.499Z,101203.17
2022-08-09T00:49:56.439Z,101203.83
2022-08-09T00:50:55.141Z,101203.02
2022-08-09T00:51:56.257Z,101200.77
2022-08-09T00:52:55.870Z,101207.5
2022-08-09T00:53:55.669Z,101206.77
2022-08-09T00:54:56.289Z,101203.88
2022-08-09T00:56:05.741Z,101206.99
2022-08-09T00:56:57.443Z,101205.69
2022-08-09T00:57:59.321Z,101208.08
2022-08-09T00:58:58.378Z,101205.09
2022-08-09T00:59:59.087Z,101208.01
2022-08-09T01:01:01.044Z,101206.63
2022-08-09T01:02:02.576Z,101205.12
2022-08-09T01:15:40.951Z,101214.54
2022-08-09T01:28:03.578Z,101216.66
2022-08-09T01:29:04.695Z,101212.02
2022-08-09T01:31:08.502Z,101216.27
2022-08-09T01:32:32.468Z,101214.2
2022-08-09T01:33:11.084Z,101219.39
2022-08-09T01:34:15.389Z,101215.52
2022-08-09T01:36:23.084Z,101214.52
2022-08-09T01:38:05.522Z,101216.44
2022-08-09T01:38:28.309Z,101217.18
2022-08-09T01:39:28.646Z,101216
2022-08-09T01:40:29.450Z,101213.17
2022-08-09T01:41:32.227Z,101218.14
2022-08-09T01:42:32.253Z,101216.86
2022-08-09T01:44:34.296Z,101217.76
2022-08-09T01:45:35.548Z,101218.23
2022-08-09T01:46:38.816Z,101217.48
2022-08-09T01:47:44.559Z,101215.75
2022-08-09T01:48:38.719Z,101216.02
2022-08-09T01:49:38.991Z,101219.31
2022-08-09T01:50:42.066Z,101214.84
2022-08-09T01:51:53.821Z,101213.94
2022-08-09T01:52:43.771Z,101214.5
2022-08-09T01:53:43.665Z,101218.59
2022-08-09T01:54:50.765Z,101218.64
2022-08-09T01:55:49.933Z,101216.97
2022-08-09T01:56:51.734Z,101217.09
2022-08-09T01:57:50.967Z,101217.94
2022-08-09T01:58:52.727Z,101217.64
2022-08-09T02:00:00.286Z,101220.3
2022-08-09T02:00:53.612Z,101226.72
2022-08-09T02:02:54.273Z,101224.44
2022-08-09T02:03:58.479Z,101224.86
2022-08-09T02:05:04.489Z,101225.47
2022-08-09T02:06:06.298Z,101225.02
2022-08-09T02:07:04.334Z,101224.83
2022-08-09T02:08:38.948Z,101223.55
2022-08-09T02:09:08.747Z,101222.81
2022-08-09T02:11:17.006Z,101224.58
2022-08-09T02:12:13.504Z,101226.2
2022-08-09T02:13:16.460Z,101231.37
2022-08-09T02:14:25.573Z,101228.7
2022-08-09T02:15:17.607Z,101227.29
2022-08-09T02:16:15.866Z,101230.58
2022-08-09T02:18:00.177Z,101231.67
2022-08-09T02:18:24.174Z,101231.7
2022-08-09T02:19:22.461Z,101232.42
2022-08-09T02:20:26.325Z,101233.66
2022-08-09T02:21:25.324Z,101233.86
2022-08-09T02:24:36.809Z,101237.69
2022-08-09T02:25:42.701Z,101234.69
2022-08-09T02:26:38.768Z,101234.84
2022-08-09T02:28:00.518Z,101238.39
2022-08-09T02:29:49.124Z,101236.59
2022-08-09T02:30:51.755Z,101231.89
2022-08-09T02:31:50.982Z,101234.33
2022-08-09T02:32:51.160Z,101233.55
2022-08-09T02:34:06.505Z,101233.25
2022-08-09T02:36:02.765Z,101230.2
2022-08-09T02:38:05.845Z,101228.09
2022-08-09T02:43:21.262Z,101232.91
2022-08-09T02:46:27.393Z,101235.39
2022-08-09T02:47:28.259Z,101232.38
2022-08-09T02:48:30.598Z,101232.84
2022-08-09T02:49:40.958Z,101231.72
2022-08-09T02:50:37.498Z,101233.34
2022-08-09T02:51:39.999Z,101233.84
2022-08-09T02:52:40.574Z,101236.97
2022-08-09T02:54:51.250Z,101236.83
2022-08-09T02:55:57.518Z,101236.61
2022-08-09T02:58:32.339Z,101240.4
2022-08-09T02:58:50.650Z,101241.75
2022-08-09T03:00:25.960Z,101240.42
2022-08-09T03:00:58.467Z,101238.53
2022-08-09T03:02:06.304Z,101240.41
2022-08-09T03:03:01.112Z,101241.97
2022-08-09T03:04:18.272Z,101243.37
2022-08-09T03:05:04.211Z,101240.59
2022-08-09T03:06:05.541Z,101239.31
2022-08-09T03:07:12.137Z,101241.37
2022-08-09T03:08:11.188Z,101237.01
2022-08-09T03:09:12.218Z,101239.02
2022-08-09T03:10:11.911Z,101240.29
2022-08-09T03:11:30.236Z,101240.83
2022-08-09T03:12:19.615Z,101241.55
2022-08-09T03:13:21.264Z,101243.84
2022-08-09T03:14:21.760Z,101244.94
2022-08-09T03:15:22.893Z,101244.76
2022-08-09T03:16:22.162Z,101247.25
2022-08-09T03:17:26.497Z,101250.34
2022-08-09T03:18:30.573Z,101248.98
2022-08-09T03:19:59.138Z,101251.27
2022-08-09T03:20:33.179Z,101251.58
2022-08-09T03:21:36.363Z,101252.12
2022-08-09T03:22:41.954Z,101253.67
2022-08-09T03:23:41.188Z,101260.55
2022-08-09T03:24:51.721Z,101258.42
2022-08-09T03:25:58.693Z,101258.65
2022-08-09T03:26:47.354Z,101259.25
2022-08-09T03:28:55.069Z,101258.17
2022-08-09T03:29:57.934Z,101261.14
2022-08-09T03:30:55.678Z,101260.62
2022-08-09T03:31:59.516Z,101265.17
2022-08-09T03:32:59.473Z,101265.83
2022-08-09T03:33:58.867Z,101264.27
2022-08-09T03:34:59.697Z,101262.41
2022-08-09T03:36:12.878Z,101264.55
2022-08-09T03:37:02.294Z,101262.47
2022-08-09T03:37:59.099Z,101264.66
2022-08-09T03:38:59.923Z,101265.8
2022-08-09T03:40:00.289Z,101266.13
2022-08-09T03:41:00.450Z,101261.47
2022-08-09T03:42:06.669Z,101262.06
2022-08-09T03:43:04.660Z,101260.12
2022-08-09T03:44:08.331Z,101258.69
2022-08-09T03:45:07.040Z,101256.34
2022-08-09T03:46:19.988Z,101255.73
2022-08-09T03:47:08.483Z,101257.71
2022-08-09T03:48:08.991Z,101258.29
2022-08-09T03:49:11.561Z,101255.99
2022-08-09T03:50:12.289Z,101252.72
2022-08-09T03:51:43.649Z,101255.38
2022-08-09T03:52:12.000Z,101253.87
2022-08-09T03:53:12.100Z,101254.94
2022-08-09T03:54:13.846Z,101254.92
2022-08-09T03:55:14.410Z,101253.3
2022-08-09T03:56:13.563Z,101255.04
2022-08-09T03:57:20.046Z,101256.41
2022-08-09T03:58:16.622Z,101256.24
2022-08-09T03:59:21.094Z,101253.39
2022-08-09T04:00:17.026Z,101251.27
2022-08-09T04:01:16.785Z,101251.52
2022-08-09T04:02:19.954Z,101252.15
2022-08-09T04:03:24.589Z,101253.62
2022-08-09T04:04:24.668Z,101253.48
2022-08-09T04:05:27.833Z,101252.3
2022-08-09T04:06:26.338Z,101251.1
2022-08-09T04:07:47.560Z,101255.26
2022-08-09T04:08:29.812Z,101254.41
2022-08-09T04:09:41.741Z,101253.34
2022-08-09T04:10:31.165Z,101253.62
2022-08-09T04:14:36.952Z,101258.94
2022-08-09T04:14:53.529Z,101258.55
2022-08-09T04:16:20.193Z,101256.62
2022-08-09T04:16:45.748Z,101258
2022-08-09T04:17:47.455Z,101256.01
2022-08-09T04:18:46.671Z,101255.86
2022-08-09T04:19:51.615Z,101257.88
2022-08-09T04:20:48.627Z,101258.93
2022-08-09T04:21:49.159Z,101260.94
2022-08-09T04:22:50.281Z,101260.86
2022-08-09T04:23:53.880Z,101260.36
2022-08-09T04:24:54.800Z,101262.72
2022-08-09T04:25:55.546Z,101260.76
2022-08-09T04:26:55.738Z,101262.95
2022-08-09T04:28:02.371Z,101260.53
2022-08-09T04:29:03.698Z,101262.79
2022-08-09T04:30:02.325Z,101264.75
2022-08-09T04:31:05.500Z,101264.41
2022-08-09T04:32:06.317Z,101262.83
2022-08-09T04:33:06.630Z,101263.41
2022-08-09T04:34:06.941Z,101261.96
2022-08-09T04:35:10.340Z,101264.62
2022-08-09T04:36:08.386Z,101263.22
2022-08-09T04:37:08.497Z,101257.01
2022-08-09T04:38:08.914Z,101259.42
2022-08-09T04:39:09.397Z,101257.22
2022-08-09T04:40:10.767Z,101258.14
2022-08-09T04:41:11.930Z,101261.37
2022-08-09T04:42:10.588Z,101260.43
2022-08-09T04:43:13.746Z,101262.59
2022-08-09T04:44:14.610Z,101263.22
2022-08-09T04:45:14.086Z,101264.03
2022-08-09T04:46:37.318Z,101265.34
2022-08-09T04:47:16.850Z,101260.48
2022-08-09T04:48:17.166Z,101263.15
2022-08-09T04:49:18.101Z,101264.58
2022-08-09T04:50:19.664Z,101261.69
2022-08-09T04:51:18.414Z,101262.02
2022-08-09T04:52:27.322Z,101264.06
2022-08-09T04:53:20.377Z,101263.44
2022-08-09T04:54:20.699Z,101262.2
2022-08-09T04:55:21.312Z,101262.67
2022-08-09T04:56:21.523Z,101260.83
2022-08-09T04:57:25.241Z,101262.31
2022-08-09T04:58:24.300Z,101262.59
2022-08-09T04:59:24.828Z,101266.25
2022-08-09T05:00:31.919Z,101267.14
2022-08-09T05:01:28.518Z,101271.09
2022-08-09T05:02:30.337Z,101271.22
2022-08-09T05:03:43.266Z,101271.29
2022-08-09T05:04:31.752Z,101269.41
2022-08-09T05:05:51.837Z,101271.49
2022-08-09T05:06:35.854Z,101272.71
2022-08-09T05:07:35.622Z,101273.07
2022-08-09T05:08:36.147Z,101273.61
2022-08-09T05:09:42.132Z,101275.98
2022-08-09T05:10:37.688Z,101278.7
2022-08-09T05:11:38.107Z,101277.45
2022-08-09T05:12:39.021Z,101276.66
2022-08-09T05:13:39.244Z,101279.38
2022-08-09T05:14:41.181Z,101278.02
2022-08-09T05:15:48.211Z,101280.66
2022-08-09T05:16:59.099Z,101277.56
2022-08-09T05:18:57.641Z,101279.25
2022-08-09T05:19:56.573Z,101279.62
2022-08-09T05:20:54.753Z,101278.73
2022-08-09T05:21:56.482Z,101281.39
2022-08-09T05:23:53.989Z,101279.83
2022-08-09T05:24:02.035Z,101278.5
2022-08-09T05:25:01.090Z,101280.83
2022-08-09T05:26:00.545Z,101278.09
2022-08-09T05:27:00.950Z,101277.44
2022-08-09T05:28:01.363Z,101273.84
2022-08-09T05:29:02.254Z,101276.23
2022-08-09T05:30:02.346Z,101273.31
2022-08-09T05:31:09.498Z,101273.09
2022-08-09T05:32:08.037Z,101275.25
2022-08-09T05:33:09.524Z,101271.36
2022-08-09T05:34:08.560Z,101274.89
2022-08-09T05:35:09.699Z,101273.5
2022-08-09T05:36:09.603Z,101275.91
2022-08-09T05:37:11.282Z,101277.81
2022-08-09T05:38:10.136Z,101274.72
2022-08-09T05:39:21.710Z,101275.92
2022-08-09T05:40:17.166Z,101272.43
2022-08-09T05:41:17.422Z,101274.41
2022-08-09T05:42:21.476Z,101275.19
2022-08-09T05:43:21.328Z,101278.53
2022-08-09T05:44:22.266Z,101278.23
2022-08-09T05:45:21.842Z,101276.38
2022-08-09T05:46:22.262Z,101273.28
2022-08-09T05:47:24.525Z,101279.53
2022-08-09T05:48:27.867Z,101277.1
2022-08-09T05:50:23.870Z,101280.25
2022-08-09T05:50:50.795Z,101281.08
2022-08-09T05:51:46.079Z,101281.47
2022-08-09T05:52:34.496Z,101280.52
2022-08-09T05:53:37.256Z,101285.19
2022-08-09T05:54:36.648Z,101282.29
2022-08-09T05:55:37.169Z,101282.84
2022-08-09T05:56:37.483Z,101284.3
2022-08-09T05:57:51.219Z,101283.31
2022-08-09T05:58:43.850Z,101286.78
2022-08-09T05:59:44.362Z,101285.83
2022-08-09T06:00:44.676Z,101286.23
2022-08-09T06:01:45.297Z,101288.25
2022-08-09T06:02:46.394Z,101282.56
2022-08-09T06:03:58.102Z,101283.8
2022-08-09T06:04:51.152Z,101283.2
2022-08-09T06:06:04.315Z,101283.84
2022-08-09T06:06:53.733Z,101283.98
2022-08-09T06:08:05.019Z,101284.22
2022-08-09T06:08:55.379Z,101281.67
2022-08-09T06:10:02.836Z,101287.41
2022-08-09T06:11:00.815Z,101283.38
2022-08-09T06:12:00.950Z,101284.7
2022-08-09T06:13:11.859Z,101283.66
2022-08-09T06:14:05.663Z,101283.41
2022-08-09T06:15:09.892Z,101283.93
2022-08-09T06:16:07.922Z,101283.87
2022-08-09T06:17:09.331Z,101289.59
2022-08-09T06:18:08.853Z,101284.72
2022-08-09T06:19:09.363Z,101288.95
2022-08-09T06:20:10.512Z,101288.34
2022-08-09T06:21:10.299Z,101285.49
2022-08-09T06:22:15.022Z,101289.23
2022-08-09T06:23:15.683Z,101289.35
2022-08-09T06:24:13.906Z,101288.95
2022-08-09T06:25:16.243Z,101289.17
2022-08-09T06:26:21.170Z,101289.88
2022-08-09T06:27:15.586Z,101292.81
2022-08-09T06:28:15.167Z,101290.42
2022-08-09T06:29:16.196Z,101293.19
2022-08-09T06:30:17.331Z,101292.56
2022-08-09T06:31:17.130Z,101295.75
2022-08-09T06:32:53.334Z,101294.91
2022-08-09T06:33:39.859Z,101297.25
2022-08-09T06:34:23.553Z,101298.42
2022-08-09T06:35:35.810Z,101297.89
2022-08-09T06:36:27.236Z,101298.02
2022-08-09T06:37:29.055Z,101300.16
2022-08-09T06:38:32.309Z,101297.9
2022-08-09T06:39:57.412Z,101303.36
2022-08-09T06:40:30.654Z,101306.74
2022-08-09T06:41:55.845Z,101307.97
2022-08-09T06:42:33.703Z,101308.25
2022-08-09T06:43:37.174Z,101302.69
2022-08-09T06:44:37.494Z,101306.52
2022-08-09T06:46:07.129Z,101305.28
2022-08-09T06:46:41.392Z,101304.95
2022-08-09T06:47:42.028Z,101305.84
2022-08-09T06:48:42.923Z,101308.05
2022-08-09T06:50:12.795Z,101307.84
2022-08-09T06:50:43.885Z,101307.77
2022-08-09T06:51:45.881Z,101309.38
2022-08-09T06:52:45.015Z,101309.06
2022-08-09T06:53:45.023Z,101309
2022-08-09T06:54:45.238Z,101309.09
2022-08-09T06:55:48.321Z,101310.27
2022-08-09T06:56:47.713Z,101308.8
2022-08-09T06:58:02.502Z,101310.77
2022-08-09T07:00:52.510Z,101307.44
2022-08-09T07:00:54.583Z,101308.44
2022-08-09T07:00:58.736Z,101308.05
2022-08-09T07:02:03.716Z,101309.66
2022-08-09T07:03:06.117Z,101306.1
2022-08-09T07:04:04.413Z,101310.07
2022-08-09T07:05:04.964Z,101308.06
2022-08-09T07:06:05.470Z,101310.34
2022-08-09T07:07:05.271Z,101308.85
2022-08-09T07:08:05.498Z,101312.36
2022-08-09T07:09:05.604Z,101305.02
2022-08-09T07:10:22.606Z,101306.16
2022-08-09T07:11:12.327Z,101306.78
2022-08-09T07:12:13.749Z,101304.52
2022-08-09T07:13:27.486Z,101303.3
2022-08-09T07:14:11.474Z,101305.62
2022-08-09T07:16:38.680Z,101303.98
2022-08-09T07:16:42.870Z,101303.64
2022-08-09T07:17:17.124Z,101304.64
2022-08-09T07:18:17.537Z,101303.36
2022-08-09T07:19:22.963Z,101306.92
2022-08-09T07:20:21.136Z,101306.84
2022-08-09T07:21:21.449Z,101307.4
2022-08-09T07:22:34.233Z,101309.54
2022-08-09T07:23:22.848Z,101303.94
2022-08-09T07:24:32.425Z,101308.8
2022-08-09T07:25:28.140Z,101311
2022-08-09T07:26:27.934Z,101304.28
2022-08-09T07:27:34.464Z,101309.84
2022-08-09T07:28:34.931Z,101306.52
2022-08-09T07:29:37.900Z,101309.23
2022-08-09T07:30:35.948Z,101306.91
2022-08-09T07:31:38.582Z,101307.71
2022-08-09T07:32:37.891Z,101312
2022-08-09T07:33:52.513Z,101313.13
2022-08-09T07:34:43.355Z,101308.52
2022-08-09T07:35:53.422Z,101309
2022-08-09T07:36:47.456Z,101313.71
2022-08-09T07:37:49.183Z,101313.33
2022-08-09T07:38:56.582Z,101312.14
2022-08-09T07:39:51.221Z,101313.43
2022-08-09T07:41:09.927Z,101314.83
2022-08-09T07:41:53.735Z,101314.36
2022-08-09T07:43:56.720Z,101314.34
2022-08-09T07:45:01.416Z,101315.56
2022-08-09T07:46:02.017Z,101319.57
2022-08-09T07:47:00.629Z,101315.77
2022-08-09T07:48:01.759Z,101318.84
2022-08-09T07:49:02.295Z,101317.8
2022-08-09T07:50:07.951Z,101315.12
2022-08-09T07:52:02.400Z,101317.56
2022-08-09T07:52:17.059Z,101317.64
2022-08-09T07:53:10.607Z,101320.83
2022-08-09T07:54:10.917Z,101318.52
2022-08-09T07:55:11.654Z,101321.17
2022-08-09T07:56:27.104Z,101313.61
2022-08-09T07:57:14.829Z,101321.16
2022-08-09T07:58:15.250Z,101320.14
2022-08-09T07:59:25.154Z,101318.59
2022-08-09T08:00:36.375Z,101319.86
2022-08-09T08:01:21.710Z,101320.59
2022-08-09T08:02:24.468Z,101322.42
2022-08-09T08:03:24.175Z,101319.2
2022-08-09T08:04:25.528Z,101320.99
2022-08-09T08:05:25.428Z,101319.78
2022-08-09T08:06:31.929Z,101319.41
2022-08-09T08:08:44.450Z,101321.85
2022-08-09T08:08:59.674Z,101322.08
2022-08-09T08:09:45.762Z,101322.7
2022-08-09T08:10:36.627Z,101322.3
2022-08-09T08:12:12.045Z,101324.53
2022-08-09T08:12:45.305Z,101323.81
2022-08-09T08:13:56.133Z,101325.85
2022-08-09T08:14:44.948Z,101324.66
2022-08-09T08:15:45.570Z,101327.83
2022-08-09T08:16:51.138Z,101322.81
2022-08-09T08:17:54.989Z,101326.95
2022-08-09T08:18:50.707Z,101326.3
2022-08-09T08:19:50.918Z,101328.7
2022-08-09T08:20:51.543Z,101326.4
2022-08-09T08:21:52.725Z,101329.02
2022-08-09T08:22:52.278Z,101327.19
2022-08-09T08:23:56.458Z,101331.53
2022-08-09T08:24:57.410Z,101329.83
2022-08-09T08:26:06.384Z,101326.52
2022-08-09T08:27:00.800Z,101327.38
2022-08-09T08:28:01.539Z,101331.39
2022-08-09T08:29:01.926Z,101328.14
2022-08-09T08:30:04.346Z,101328.07
2022-08-09T08:31:14.435Z,101331.34
2022-08-09T08:32:06.114Z,101331.19
2022-08-09T08:33:04.566Z,101333.09
2022-08-09T08:34:04.624Z,101333.59
2022-08-09T08:35:07.199Z,101332.31
2022-08-09T08:36:07.407Z,101331.89
2022-08-09T08:37:07.311Z,101329.31
2022-08-09T08:38:11.523Z,101330.54
2022-08-09T08:39:10.745Z,101330.14
2022-08-09T08:40:11.639Z,101330.47
2022-08-09T08:41:11.142Z,101330.7
2022-08-09T08:42:11.134Z,101334.38
2022-08-09T08:43:13.750Z,101330.59
2022-08-09T08:44:13.776Z,101332.66
2022-08-09T08:45:13.759Z,101331.15
2022-08-09T08:46:32.292Z,101332.8
2022-08-09T08:47:16.186Z,101331.91
2022-08-09T08:48:19.406Z,101331.54
2022-08-09T08:49:19.142Z,101329.25
2022-08-09T08:50:18.319Z,101328.7
2022-08-09T08:51:18.475Z,101332.61
2022-08-09T08:52:52.725Z,101336.81
2022-08-09T08:53:23.402Z,101332.33
2022-08-09T08:54:28.110Z,101334.15
2022-08-09T08:55:28.420Z,101333.84
2022-08-09T08:56:29.867Z,101334.94
2022-08-09T08:57:30.282Z,101333.77
2022-08-09T08:58:35.965Z,101327.97
2022-08-09T08:59:46.501Z,101326.84
2022-08-09T09:00:35.381Z,101328.96
2022-08-09T09:01:52.257Z,101333.55
2022-08-09T09:02:38.405Z,101336.41
2022-08-09T09:03:38.304Z,101333.96
2022-08-09T09:04:47.918Z,101331.55
2022-08-09T09:06:00.069Z,101336.27
2022-08-09T09:06:45.262Z,101332.94
2022-08-09T09:08:52.770Z,101337.03
2022-08-09T09:10:01.714Z,101335.11
2022-08-09T09:10:51.154Z,101333.34
2022-08-09T09:11:52.288Z,101336.3
2022-08-09T09:12:52.084Z,101338.44
2022-08-09T09:13:58.445Z,101332.34
2022-08-09T09:14:58.853Z,101335.94
2022-08-09T09:15:57.323Z,101334.53
2022-08-09T09:16:57.026Z,101327.73
2022-08-09T09:17:57.656Z,101330.33
2022-08-09T09:19:15.735Z,101332.03
2022-08-09T09:20:01.136Z,101335.3
2022-08-09T09:21:00.841Z,101333.7
2022-08-09T09:23:02.792Z,101330.59
2022-08-09T09:24:12.319Z,101330.75
2022-08-09T09:26:04.697Z,101330.41
2022-08-09T09:26:11.820Z,101328.93
2022-08-09T09:28:13.478Z,101327.72
2022-08-09T09:30:38.200Z,101331.64
2022-08-09T09:32:05.989Z,101327.75
2022-08-09T09:34:30.023Z,101329
2022-08-09T09:35:30.014Z,101331.44
2022-08-09T09:37:36.175Z,101329.36
2022-08-09T09:39:54.531Z,101325.64
2022-08-09T09:41:49.862Z,101325.36
2022-08-09T09:42:46.405Z,101326.4
2022-08-09T09:44:12.248Z,101327.27
2022-08-09T09:45:57.493Z,101327.73
2022-08-09T09:47:58.897Z,101329.58
2022-08-09T09:49:02.047Z,101331.08
2022-08-09T09:50:13.849Z,101328.58
2022-08-09T09:51:03.695Z,101331.01
2022-08-09T09:52:16.353Z,101334.8
2022-08-09T09:53:10.549Z,101330.74
2022-08-09T09:54:20.545Z,101333.67
2022-08-09T09:55:16.380Z,101332.77
2022-08-09T09:56:20.134Z,101333.5
2022-08-09T09:58:19.708Z,101334.22
2022-08-09T10:00:25.835Z,101331.55
2022-08-09T10:01:37.305Z,101329.29
2022-08-09T10:02:27.179Z,101329.62
2022-08-09T10:04:30.798Z,101327.98
2022-08-09T10:06:00.907Z,101333.49
2022-08-09T10:07:36.568Z,101332.59
2022-08-09T10:08:54.306Z,101331.17
2022-08-09T10:10:40.899Z,101335.23
2022-08-09T10:12:00.082Z,101334.86
2022-08-09T10:12:49.812Z,101336.81
2022-08-09T10:13:45.632Z,101335.2
2022-08-09T10:14:48.946Z,101331.42
2022-08-09T10:16:09.463Z,101336.45
2022-08-09T10:16:58.263Z,101335.9
2022-08-09T10:17:56.261Z,101332.68
2022-08-09T10:18:55.792Z,101335.55
2022-08-09T10:19:58.703Z,101335.64
2022-08-09T10:21:09.637Z,101332.52
2022-08-09T10:22:02.476Z,101334.11
2022-08-09T10:24:04.431Z,101333.06
2022-08-09T10:25:12.133Z,101333.2
2022-08-09T10:26:11.130Z,101334.16
2022-08-09T10:27:16.991Z,101334.8
2022-08-09T10:28:11.213Z,101332.31
2022-08-09T10:29:20.955Z,101332.7
2022-08-09T10:32:38.693Z,101327.62
2022-08-09T10:34:04.519Z,101325.94
2022-08-09T10:34:33.463Z,101332.41
2022-08-09T10:35:28.764Z,101332.7
2022-08-09T10:36:30.012Z,101330.03
2022-08-09T10:37:30.316Z,101333.4
2022-08-09T10:38:54.336Z,101331.7
2022-08-09T10:39:40.881Z,101332.54
2022-08-09T10:40:41.146Z,101332.08
2022-08-09T10:41:37.204Z,101330.27
2022-08-09T10:42:37.834Z,101333.9
2022-08-09T10:44:45.106Z,101334.7
2022-08-09T10:45:58.487Z,101332.66
2022-08-09T10:48:59.163Z,101329.41
2022-08-09T10:50:05.443Z,101327.34
2022-08-09T10:54:10.084Z,101332.71
2022-08-09T10:57:15.596Z,101336.67
2022-08-09T11:03:49.584Z,101340.31
2022-08-09T11:04:32.490Z,101339.91
2022-08-09T11:05:31.271Z,101345.49
2022-08-09T11:06:31.022Z,101338.23
2022-08-09T11:07:57.165Z,101340.33
2022-08-09T11:16:58.953Z,101350.95
2022-08-09T11:18:03.929Z,101355.09
2022-08-09T11:19:03.154Z,101353.23
2022-08-09T11:20:10.600Z,101353.16
2022-08-09T11:21:05.733Z,101351.2
2022-08-09T11:22:18.561Z,101350.7
2022-08-09T11:23:10.189Z,101348.34
2022-08-09T11:24:08.718Z,101347.11
2022-08-09T11:36:42.219Z,101342.5
2022-08-09T11:37:41.427Z,101347.09
2022-08-09T11:38:41.175Z,101344.39
2022-08-09T11:40:41.390Z,101344.39
2022-08-09T11:41:41.934Z,101342.8
2022-08-09T11:42:45.850Z,101341.09
2022-08-09T11:44:46.877Z,101343.14
2022-08-09T11:46:55.286Z,101338.64
2022-08-09T11:47:50.292Z,101337.7
2022-08-09T11:48:51.458Z,101338.3
2022-08-09T11:52:49.083Z,101336.69
2022-08-09T11:52:57.121Z,101332.23
2022-08-09T11:59:08.341Z,101332.55
2022-08-09T12:00:15.785Z,101331.31
2022-08-09T12:01:15.493Z,101331.72
2022-08-09T12:02:34.038Z,101331.33
2022-08-09T12:03:56.114Z,101329.34
2022-08-09T12:04:28.633Z,101330.96
2022-08-09T12:06:26.602Z,101332.83
2022-08-09T12:07:41.363Z,101331.55
2022-08-09T12:08:30.199Z,101333.38
2022-08-09T12:09:33.697Z,101336.66
2022-08-09T12:10:39.825Z,101333.48
2022-08-09T12:11:37.832Z,101334.89
2022-08-09T12:14:07.695Z,101330.55
2022-08-09T12:15:07.776Z,101331.39
2022-08-09T12:15:52.013Z,101333.44
2022-08-09T12:16:53.510Z,101330.81
2022-08-09T12:17:54.849Z,101334.32
2022-08-09T12:18:55.063Z,101331.89
2022-08-09T12:19:59.480Z,101331.09
2022-08-09T12:21:00.308Z,101329.66
2022-08-09T12:23:03.721Z,101329.67
2022-08-09T12:24:09.631Z,101328.27
2022-08-09T12:26:11.587Z,101335.68
2022-08-09T12:29:10.808Z,101335.11
2022-08-09T12:29:14.482Z,101333.88
2022-08-09T12:29:33.658Z,101330.42
2022-08-09T12:30:36.213Z,101333.86
2022-08-09T12:31:59.262Z,101331.41
2022-08-09T12:32:27.318Z,101337.52
2022-08-09T12:33:35.336Z,101332.04
2022-08-09T12:35:28.131Z,101334.23
2022-08-09T12:36:32.335Z,101333.5
2022-08-09T12:37:49.790Z,101332.9
2022-08-09T12:38:37.908Z,101332.09
2022-08-09T12:39:37.821Z,101327.78
2022-08-09T12:41:40.979Z,101325.31
2022-08-09T12:42:45.065Z,101327.3
2022-08-09T12:44:06.356Z,101326.02
2022-08-09T12:44:52.418Z,101325.44
2022-08-09T12:46:00.346Z,101322.02
2022-08-09T12:46:50.113Z,101323.56
2022-08-09T12:47:51.552Z,101322.16
2022-08-09T12:48:49.713Z,101318.85
2022-08-09T12:49:51.098Z,101317.91
2022-08-09T12:50:51.597Z,101320.92
2022-08-09T12:52:00.537Z,101315.55
2022-08-09T12:53:07.960Z,101315.56
2022-08-09T12:54:03.889Z,101314.08
2022-08-09T12:56:12.333Z,101316.66
2022-08-09T12:57:04.183Z,101313.53
2022-08-09T12:58:27.278Z,101312.94
2022-08-09T13:02:11.711Z,101309.86
2022-08-09T13:03:24.652Z,101311.33
2022-08-09T13:04:36.711Z,101309.62
2022-08-09T13:05:19.721Z,101310.91
2022-08-09T13:07:28.602Z,101310.7
2022-08-09T13:08:40.124Z,101311.23
2022-08-09T13:09:33.166Z,101311.22
2022-08-09T13:11:46.174Z,101312.24
2022-08-09T13:12:59.861Z,101310.14
2022-08-09T13:14:41.251Z,101309.82
2022-08-09T13:14:53.811Z,101310.16
2022-08-09T13:15:54.401Z,101309.64
2022-08-09T13:16:54.408Z,101311.23
2022-08-09T13:18:59.023Z,101308.8
2022-08-09T13:20:08.670Z,101309.29
2022-08-09T13:22:33.400Z,101308.09
2022-08-09T13:24:16.846Z,101308.37
2022-08-09T13:24:16.936Z,101309.69
2022-08-09T13:25:14.349Z,101304.7
2022-08-09T13:28:24.466Z,101306.86
2022-08-09T13:29:28.420Z,101299.8
2022-08-09T13:30:48.774Z,101304.09
2022-08-09T13:32:16.646Z,101298.98
2022-08-09T13:33:52.282Z,101299.05
2022-08-09T13:36:37.503Z,101299.61
2022-08-09T13:36:43.198Z,101298.53
2022-08-09T13:37:52.022Z,101302
2022-08-09T13:38:57.948Z,101296.57
2022-08-09T13:41:46.064Z,101298.44
2022-08-09T13:42:01.013Z,101299.84
2022-08-09T13:42:54.550Z,101298.69
2022-08-09T13:43:54.686Z,101299.55
2022-08-09T13:44:55.198Z,101301.23
2022-08-09T13:46:42.532Z,101294.12
2022-08-09T13:47:28.962Z,101301.14
2022-08-09T13:48:00.544Z,101301.05
2022-08-09T13:49:00.908Z,101300.07
2022-08-09T13:50:02.509Z,101304.06
2022-08-09T13:51:01.686Z,101301.77
2022-08-09T13:52:02.820Z,101300.42
2022-08-09T13:53:07.280Z,101301.05
2022-08-09T13:54:07.447Z,101302.75
2022-08-09T13:55:13.437Z,101299.45
2022-08-09T13:56:12.108Z,101298.09